createdAt,value
2023-01-08T00:00:07.182Z,17.40
2023-01-08T00:01:11.447Z,17.15
2023-01-08T00:02:13.425Z,15.85
2023-01-08T00:03:16.048Z,15.55
2023-01-08T00:04:18.090Z,17.88
2023-01-08T00:05:19.992Z,16.00
2023-01-08T00:06:21.970Z,16.47
2023-01-08T00:07:23.920Z,17.42
2023-01-08T00:08:25.860Z,17.70
2023-01-08T00:09:27.786Z,19.55
2023-01-08T00:10:29.752Z,18.27
2023-01-08T00:11:31.665Z,17.75
2023-01-08T00:12:33.463Z,19.27
2023-01-08T00:13:35.525Z,18.70
2023-01-08T00:14:37.201Z,19.63
2023-01-08T00:15:39.028Z,18.10
2023-01-08T00:16:40.912Z,19.50
2023-01-08T00:17:42.610Z,17.38
2023-01-08T00:18:46.083Z,21.08
2023-01-08T00:19:47.799Z,19.65
2023-01-08T00:20:49.619Z,21.15
2023-01-08T00:21:51.328Z,19.38
2023-01-08T00:22:53.071Z,21.75
2023-01-08T00:23:54.875Z,19.15
2023-01-08T00:24:56.586Z,20.23
2023-01-08T00:26:01.860Z,20.25
2023-01-08T00:27:03.735Z,18.67
2023-01-08T00:28:05.578Z,18.95
2023-01-08T00:29:07.467Z,21.10
2023-01-08T00:30:09.788Z,22.42
2023-01-08T00:31:12.949Z,21.55
2023-01-08T00:32:14.745Z,19.38
2023-01-08T00:33:16.874Z,20.33
2023-01-08T00:34:18.555Z,18.90
2023-01-08T00:35:20.258Z,17.70
2023-01-08T00:36:21.930Z,19.95
2023-01-08T00:37:23.731Z,18.97
2023-01-08T00:38:27.103Z,17.35
2023-01-08T00:39:28.837Z,15.77
2023-01-08T00:40:30.489Z,17.25
2023-01-08T00:41:32.274Z,16.63
2023-01-08T00:42:33.972Z,15.77
2023-01-08T00:43:36.375Z,16.30
2023-01-08T00:44:38.344Z,14.10
2023-01-08T00:45:40.078Z,16.23
2023-01-08T00:46:41.851Z,16.35
2023-01-08T00:47:43.702Z,16.90
2023-01-08T00:48:45.453Z,16.05
2023-01-08T00:49:47.190Z,15.77
2023-01-08T00:50:52.449Z,14.75
2023-01-08T00:51:54.194Z,15.40
2023-01-08T00:52:55.958Z,15.13
2023-01-08T00:53:57.686Z,14.15
2023-01-08T00:54:59.402Z,16.63
2023-01-08T00:56:04.093Z,16.55
2023-01-08T00:57:05.977Z,18.80
2023-01-08T00:58:07.778Z,14.13
2023-01-08T00:59:09.714Z,13.90
2023-01-08T01:00:16.511Z,13.10
2023-01-08T01:01:18.451Z,13.07
2023-01-08T01:02:20.437Z,12.90
2023-01-08T01:03:22.434Z,13.25
2023-01-08T01:04:26.718Z,13.23
2023-01-08T01:05:28.503Z,13.20
2023-01-08T01:06:30.549Z,13.00
2023-01-08T01:07:33.911Z,12.43
2023-01-08T01:08:35.815Z,14.73
2023-01-08T01:09:37.774Z,14.88
2023-01-08T01:10:39.783Z,13.52
2023-01-08T01:11:41.522Z,13.00
2023-01-08T01:12:43.946Z,11.40
2023-01-08T01:13:45.686Z,12.60
2023-01-08T01:14:47.372Z,12.55
2023-01-08T01:15:59.976Z,14.07
2023-01-08T01:17:01.700Z,12.05
2023-01-08T01:18:03.506Z,12.35
2023-01-08T01:19:05.289Z,12.03
2023-01-08T01:20:10.292Z,12.77
2023-01-08T01:21:18.835Z,14.65
2023-01-08T01:22:20.686Z,13.07
2023-01-08T01:23:22.393Z,12.63
2023-01-08T01:24:24.136Z,13.80
2023-01-08T01:25:25.885Z,12.98
2023-01-08T01:26:28.317Z,14.10
2023-01-08T01:27:30.139Z,14.07
2023-01-08T01:28:31.772Z,13.32
2023-01-08T01:29:33.593Z,13.00
2023-01-08T01:30:35.683Z,14.27
2023-01-08T01:31:37.340Z,14.13
2023-01-08T01:32:39.081Z,13.38
2023-01-08T01:33:41.754Z,12.05
2023-01-08T01:34:43.832Z,12.23
2023-01-08T01:35:45.506Z,11.82
2023-01-08T01:36:47.248Z,12.57
2023-01-08T01:37:49.111Z,12.70
2023-01-08T01:38:53.050Z,12.30
2023-01-08T01:39:54.878Z,12.30
2023-01-08T01:40:56.677Z,11.90
2023-01-08T01:41:58.419Z,13.27
2023-01-08T01:43:00.109Z,12.95
2023-01-08T01:44:41.749Z,12.20
2023-01-08T01:45:43.513Z,10.95
2023-01-08T01:46:45.548Z,12.02
2023-01-08T01:47:58.383Z,13.32
2023-01-08T01:49:06.262Z,15.20
2023-01-08T01:50:18.336Z,13.73
2023-01-08T01:51:21.148Z,11.80
2023-01-08T01:52:25.248Z,12.88
2023-01-08T01:53:35.762Z,14.80
2023-01-08T01:54:37.760Z,12.82
2023-01-08T01:55:42.639Z,13.10
2023-01-08T01:56:45.607Z,13.10
2023-01-08T01:57:58.513Z,13.27
2023-01-08T01:59:00.574Z,13.02
2023-01-08T02:00:04.978Z,12.75
2023-01-08T02:01:08.644Z,12.63
2023-01-08T02:02:10.762Z,14.73
2023-01-08T02:03:14.898Z,13.45
2023-01-08T02:04:16.678Z,13.13
2023-01-08T02:05:19.476Z,12.68
2023-01-08T02:06:39.321Z,12.82
2023-01-08T02:07:56.153Z,11.35
2023-01-08T02:09:03.174Z,11.90
2023-01-08T02:10:25.959Z,10.63
2023-01-08T02:11:36.444Z,10.70
2023-01-08T02:12:47.267Z,10.55
2023-01-08T02:14:07.325Z,10.53
2023-01-08T02:15:24.442Z,10.88
2023-01-08T02:16:31.967Z,10.63
2023-01-08T02:17:58.863Z,10.95
2023-01-08T02:19:07.934Z,9.90
2023-01-08T02:20:19.934Z,10.07
2023-01-08T02:21:28.209Z,12.82
2023-01-08T02:22:46.563Z,13.10
2023-01-08T02:24:13.639Z,12.70
2023-01-08T02:25:36.927Z,12.20
2023-01-08T02:26:39.187Z,12.13
2023-01-08T02:27:45.705Z,13.60
2023-01-08T02:28:55.564Z,13.43
2023-01-08T02:29:58.339Z,13.85
2023-01-08T02:31:00.492Z,13.23
2023-01-08T02:32:02.443Z,14.30
2023-01-08T02:33:04.439Z,13.15
2023-01-08T02:34:06.755Z,13.85
2023-01-08T02:35:10.385Z,13.88
2023-01-08T02:36:24.095Z,13.02
2023-01-08T02:37:26.065Z,15.50
2023-01-08T02:38:28.710Z,13.63
2023-01-08T02:39:51.818Z,14.20
2023-01-08T02:41:00.730Z,12.85
2023-01-08T02:42:35.387Z,12.10
2023-01-08T02:43:47.620Z,11.82
2023-01-08T02:45:08.122Z,12.13
2023-01-08T02:46:14.503Z,11.75
2023-01-08T02:47:23.894Z,12.07
2023-01-08T02:48:49.231Z,13.75
2023-01-08T02:50:00.490Z,12.17
2023-01-08T02:51:28.986Z,13.07
2023-01-08T02:52:35.651Z,11.57
2023-01-08T02:53:45.414Z,13.45
2023-01-08T02:54:48.586Z,12.35
2023-01-08T02:55:55.440Z,12.52
2023-01-08T02:57:09.495Z,12.52
2023-01-08T02:58:13.192Z,12.55
2023-01-08T02:59:16.674Z,12.77
2023-01-08T03:00:19.754Z,12.90
2023-01-08T03:01:23.883Z,11.60
2023-01-08T03:02:30.854Z,13.68
2023-01-08T03:03:33.395Z,11.35
2023-01-08T03:04:43.987Z,11.27
2023-01-08T03:05:50.384Z,10.25
2023-01-08T03:06:52.570Z,8.70
2023-01-08T03:07:55.663Z,8.68
2023-01-08T03:08:59.514Z,8.57
2023-01-08T03:10:01.352Z,10.30
2023-01-08T03:11:08.494Z,8.80
2023-01-08T03:12:20.841Z,9.67
2023-01-08T03:13:31.454Z,8.35
2023-01-08T03:14:44.417Z,8.05
2023-01-08T03:15:58.093Z,8.50
2023-01-08T03:17:12.771Z,9.48
2023-01-08T03:18:21.084Z,7.45
2023-01-08T03:19:43.898Z,7.88
2023-01-08T03:20:47.817Z,8.27
2023-01-08T03:21:51.467Z,7.80
2023-01-08T03:22:57.127Z,8.45
2023-01-08T03:24:00.003Z,8.70
2023-01-08T03:25:04.476Z,8.07
2023-01-08T03:26:07.116Z,8.38
2023-01-08T03:27:14.610Z,10.90
2023-01-08T03:28:27.304Z,8.93
2023-01-08T03:29:29.084Z,11.60
2023-01-08T03:30:31.688Z,11.02
2023-01-08T03:31:34.743Z,11.35
2023-01-08T03:32:39.585Z,12.88
2023-01-08T03:33:43.159Z,17.08
2023-01-08T03:34:47.503Z,15.27
2023-01-08T03:35:53.363Z,16.58
2023-01-08T03:36:58.650Z,16.45
2023-01-08T03:38:22.305Z,13.48
2023-01-08T03:39:33.735Z,14.07
2023-01-08T03:40:45.161Z,12.05
2023-01-08T03:41:48.996Z,11.73
2023-01-08T03:42:50.863Z,11.73
2023-01-08T03:43:52.630Z,11.57
2023-01-08T03:44:54.427Z,8.38
2023-01-08T03:46:03.910Z,9.00
2023-01-08T03:47:08.815Z,8.43
2023-01-08T03:48:10.941Z,9.02
2023-01-08T03:49:13.700Z,9.05
2023-01-08T03:50:21.156Z,8.88
2023-01-08T03:51:22.959Z,8.57
2023-01-08T03:52:27.252Z,9.10
2023-01-08T03:53:28.965Z,9.32
2023-01-08T03:54:32.441Z,9.85
2023-01-08T03:55:34.276Z,9.80
2023-01-08T03:56:36.052Z,9.57
2023-01-08T03:57:37.782Z,10.27
2023-01-08T03:58:39.556Z,9.85
2023-01-08T03:59:41.296Z,9.15
2023-01-08T04:00:43.125Z,9.52
2023-01-08T04:01:44.964Z,8.75
2023-01-08T04:02:46.835Z,9.73
2023-01-08T04:03:48.479Z,9.30
2023-01-08T04:04:50.166Z,9.70
2023-01-08T04:05:51.916Z,9.25
2023-01-08T04:06:53.687Z,9.13
2023-01-08T04:07:56.506Z,9.43
2023-01-08T04:08:58.193Z,8.75
2023-01-08T04:09:59.954Z,7.85
2023-01-08T04:11:01.690Z,8.38
2023-01-08T04:12:03.946Z,8.05
2023-01-08T04:13:05.688Z,6.75
2023-01-08T04:14:07.465Z,7.03
2023-01-08T04:15:09.757Z,7.60
2023-01-08T04:16:11.718Z,8.75
2023-01-08T04:17:14.199Z,7.80
2023-01-08T04:18:16.673Z,8.18
2023-01-08T04:19:18.405Z,6.97
2023-01-08T04:20:20.376Z,7.88
2023-01-08T04:21:22.074Z,7.82
2023-01-08T04:22:23.803Z,8.73
2023-01-08T04:23:25.920Z,8.30
2023-01-08T04:24:27.646Z,7.45
2023-01-08T04:25:29.363Z,8.13
2023-01-08T04:26:31.807Z,6.50
2023-01-08T04:27:33.682Z,7.47
2023-01-08T04:28:36.183Z,8.18
2023-01-08T04:29:37.903Z,7.82
2023-01-08T04:30:39.766Z,6.57
2023-01-08T04:31:41.704Z,7.50
2023-01-08T04:32:43.468Z,6.38
2023-01-08T04:33:45.274Z,7.50
2023-01-08T04:34:46.965Z,7.70
2023-01-08T04:35:48.830Z,8.30
2023-01-08T04:36:50.705Z,8.55
2023-01-08T04:37:52.437Z,8.23
2023-01-08T04:38:54.143Z,7.45
2023-01-08T04:39:55.832Z,7.90
2023-01-08T04:40:58.595Z,9.02
2023-01-08T04:42:00.518Z,7.93
2023-01-08T04:43:02.377Z,8.00
2023-01-08T04:44:04.470Z,9.07
2023-01-08T04:45:07.886Z,7.68
2023-01-08T04:46:09.743Z,7.53
2023-01-08T04:47:11.377Z,7.25
2023-01-08T04:48:13.274Z,7.53
2023-01-08T04:49:14.997Z,8.25
2023-01-08T04:50:16.793Z,7.43
2023-01-08T04:51:18.488Z,7.63
2023-01-08T04:52:20.244Z,7.85
2023-01-08T04:53:21.956Z,8.13
2023-01-08T04:54:23.667Z,8.32
2023-01-08T04:55:25.417Z,9.52
2023-01-08T04:56:27.160Z,9.85
2023-01-08T04:57:28.916Z,11.07
2023-01-08T04:58:30.688Z,10.23
2023-01-08T04:59:32.361Z,10.77
2023-01-08T05:00:34.599Z,9.35
2023-01-08T05:01:36.411Z,10.68
2023-01-08T05:02:38.380Z,10.95
2023-01-08T05:03:40.798Z,9.10
2023-01-08T05:04:42.567Z,9.95
2023-01-08T05:05:44.289Z,9.07
2023-01-08T05:06:46.074Z,9.93
2023-01-08T05:07:47.747Z,10.10
2023-01-08T05:08:49.736Z,10.27
2023-01-08T05:09:52.116Z,10.45
2023-01-08T05:10:53.794Z,9.98
2023-01-08T05:11:55.625Z,9.32
2023-01-08T05:13:01.297Z,9.32
2023-01-08T05:14:03.089Z,10.63
2023-01-08T05:15:05.413Z,11.65
2023-01-08T05:16:07.518Z,11.63
2023-01-08T05:17:09.390Z,8.65
2023-01-08T05:18:11.144Z,10.60
2023-01-08T05:19:13.075Z,8.70
2023-01-08T05:20:14.879Z,8.90
2023-01-08T05:21:17.206Z,10.98
2023-01-08T05:22:18.976Z,9.93
2023-01-08T05:23:20.697Z,10.45
2023-01-08T05:24:22.449Z,10.88
2023-01-08T05:25:24.429Z,8.60
2023-01-08T05:26:26.124Z,11.18
2023-01-08T05:27:28.919Z,12.55
2023-01-08T05:28:31.258Z,10.23
2023-01-08T05:29:32.976Z,9.40
2023-01-08T05:30:36.264Z,10.70
2023-01-08T05:31:38.056Z,9.60
2023-01-08T05:32:39.775Z,10.50
2023-01-08T05:33:41.562Z,11.20
2023-01-08T05:34:44.342Z,11.15
2023-01-08T05:35:46.308Z,9.95
2023-01-08T05:36:48.044Z,11.45
2023-01-08T05:37:49.758Z,14.20
2023-01-08T05:38:51.490Z,11.18
2023-01-08T05:39:53.262Z,11.50
2023-01-08T05:40:55.070Z,9.75
2023-01-08T05:41:56.777Z,11.32
2023-01-08T05:43:02.127Z,9.85
2023-01-08T05:44:03.905Z,10.15
2023-01-08T05:45:07.664Z,10.98
2023-01-08T05:46:09.420Z,11.57
2023-01-08T05:47:11.102Z,9.65
2023-01-08T05:48:12.858Z,10.02
2023-01-08T05:49:16.824Z,10.02
2023-01-08T05:50:18.889Z,11.50
2023-01-08T05:51:20.654Z,12.27
2023-01-08T05:52:22.487Z,11.88
2023-01-08T05:53:24.204Z,11.68
2023-01-08T05:54:25.959Z,11.57
2023-01-08T05:55:27.694Z,11.07
2023-01-08T05:56:29.331Z,11.35
2023-01-08T05:57:30.996Z,10.25
2023-01-08T05:58:32.716Z,10.32
2023-01-08T05:59:34.454Z,10.65
2023-01-08T06:00:36.245Z,9.83
2023-01-08T06:01:38.175Z,10.73
2023-01-08T06:02:39.946Z,8.93
2023-01-08T06:03:41.934Z,11.02
2023-01-08T06:04:44.383Z,10.93
2023-01-08T06:05:46.176Z,11.43
2023-01-08T06:06:47.871Z,9.50
2023-01-08T06:07:49.651Z,9.30
2023-01-08T06:08:51.355Z,8.48
2023-01-08T06:09:53.072Z,7.88
2023-01-08T06:10:55.403Z,7.97
2023-01-08T06:11:57.315Z,8.43
2023-01-08T06:12:58.941Z,8.38
2023-01-08T06:14:00.748Z,8.70
2023-01-08T06:15:03.481Z,9.38
2023-01-08T06:16:05.844Z,8.95
2023-01-08T06:17:07.709Z,8.82
2023-01-08T06:18:09.380Z,10.63
2023-01-08T06:19:11.864Z,13.13
2023-01-08T06:20:13.602Z,13.77
2023-01-08T06:21:15.337Z,14.10
2023-01-08T06:22:17.028Z,13.15
2023-01-08T06:23:18.879Z,16.92
2023-01-08T06:24:20.611Z,16.90
2023-01-08T06:25:22.663Z,15.40
2023-01-08T06:26:24.351Z,12.02
2023-01-08T06:27:26.363Z,9.75
2023-01-08T06:28:28.126Z,9.52
2023-01-08T06:29:29.824Z,8.85
2023-01-08T06:30:31.650Z,10.00
2023-01-08T06:31:33.484Z,10.83
2023-01-08T06:32:35.332Z,12.13
2023-01-08T06:33:37.025Z,9.68
2023-01-08T06:34:38.743Z,10.23
2023-01-08T06:35:40.396Z,9.95
2023-01-08T06:36:42.169Z,10.63
2023-01-08T06:37:43.991Z,9.25
2023-01-08T06:38:45.774Z,10.07
2023-01-08T06:39:47.481Z,10.50
2023-01-08T06:40:49.162Z,10.20
2023-01-08T06:41:50.939Z,8.93
2023-01-08T06:42:52.535Z,11.07
2023-01-08T06:43:54.180Z,9.93
2023-01-08T06:44:56.126Z,10.95
2023-01-08T06:45:57.779Z,11.70
2023-01-08T06:46:59.717Z,11.95
2023-01-08T06:48:06.766Z,12.90
2023-01-08T06:49:09.219Z,13.68
2023-01-08T06:50:10.986Z,13.75
2023-01-08T06:51:12.926Z,13.05
2023-01-08T06:52:14.591Z,15.50
2023-01-08T06:53:16.406Z,17.08
2023-01-08T06:54:18.269Z,19.40
2023-01-08T06:55:21.013Z,21.20
2023-01-08T06:56:22.653Z,24.30
2023-01-08T06:57:24.832Z,24.08
2023-01-08T06:58:27.970Z,26.80
2023-01-08T06:59:29.696Z,28.67
2023-01-08T07:00:31.569Z,28.27
2023-01-08T07:01:33.338Z,26.13
2023-01-08T07:02:35.330Z,26.93
2023-01-08T07:03:37.277Z,30.98
2023-01-08T07:04:38.975Z,24.30
2023-01-08T07:05:40.897Z,22.98
2023-01-08T07:06:42.737Z,22.60
2023-01-08T07:07:44.682Z,20.10
2023-01-08T07:08:46.821Z,20.40
2023-01-08T07:09:48.633Z,20.05
2023-01-08T07:10:50.560Z,19.80
2023-01-08T07:11:52.235Z,18.55
2023-01-08T07:12:53.995Z,19.30
2023-01-08T07:13:56.207Z,19.13
2023-01-08T07:14:58.001Z,18.02
2023-01-08T07:16:08.852Z,20.05
2023-01-08T07:17:10.885Z,19.48
2023-01-08T07:18:12.958Z,17.48
2023-01-08T07:19:14.649Z,19.67
2023-01-08T07:20:16.428Z,17.73
2023-01-08T07:21:18.160Z,18.90
2023-01-08T07:22:20.069Z,19.15
2023-01-08T07:23:21.871Z,20.13
2023-01-08T07:24:23.838Z,18.63
2023-01-08T07:25:26.044Z,19.42
2023-01-08T07:26:27.898Z,19.77
2023-01-08T07:27:29.637Z,20.77
2023-01-08T07:28:32.083Z,20.85
2023-01-08T07:29:33.854Z,22.00
2023-01-08T07:30:35.596Z,20.42
2023-01-08T07:31:37.624Z,23.33
2023-01-08T07:32:39.395Z,24.88
2023-01-08T07:33:41.193Z,22.57
2023-01-08T07:34:42.955Z,19.45
2023-01-08T07:35:44.712Z,20.08
2023-01-08T07:36:46.371Z,24.33
2023-01-08T07:37:48.040Z,25.65
2023-01-08T07:38:49.992Z,29.90
2023-01-08T07:39:51.954Z,29.77
2023-01-08T07:40:54.133Z,24.27
2023-01-08T07:41:56.233Z,25.67
2023-01-08T07:42:59.353Z,33.58
2023-01-08T07:44:01.195Z,26.17
2023-01-08T07:45:03.365Z,21.80
2023-01-08T07:46:05.550Z,22.38
2023-01-08T07:47:07.362Z,33.38
2023-01-08T07:48:10.069Z,39.53
2023-01-08T07:49:12.121Z,40.30
2023-01-08T07:50:13.926Z,26.02
2023-01-08T07:51:15.840Z,19.98
2023-01-08T07:52:17.669Z,22.77
2023-01-08T07:53:19.442Z,23.73
2023-01-08T07:54:21.291Z,24.50
2023-01-08T07:55:23.006Z,25.13
2023-01-08T07:56:24.748Z,26.05
2023-01-08T07:57:29.195Z,29.25
2023-01-08T07:58:31.350Z,26.02
2023-01-08T07:59:33.145Z,25.20
2023-01-08T08:00:35.016Z,29.38
2023-01-08T08:01:36.737Z,30.45
2023-01-08T08:02:38.667Z,25.65
2023-01-08T08:03:41.410Z,28.58
2023-01-08T08:04:43.183Z,26.13
2023-01-08T08:05:44.951Z,32.75
2023-01-08T08:06:46.753Z,29.42
2023-01-08T08:07:48.465Z,23.27
2023-01-08T08:08:50.230Z,22.38
2023-01-08T08:09:51.963Z,21.08
2023-01-08T08:10:53.680Z,23.20
2023-01-08T08:11:55.381Z,22.85
2023-01-08T08:12:57.069Z,22.20
2023-01-08T08:13:58.721Z,20.92
2023-01-08T08:15:00.527Z,21.77
2023-01-08T08:16:06.043Z,26.00
2023-01-08T08:17:07.725Z,26.23
2023-01-08T08:18:10.174Z,24.88
2023-01-08T08:19:12.339Z,26.95
2023-01-08T08:20:14.348Z,27.40
2023-01-08T08:21:16.103Z,25.95
2023-01-08T08:22:17.875Z,26.23
2023-01-08T08:23:19.551Z,24.70
2023-01-08T08:24:21.279Z,23.42
2023-01-08T08:25:23.019Z,23.33
2023-01-08T08:26:25.266Z,22.73
2023-01-08T08:27:26.981Z,24.10
2023-01-08T08:28:28.748Z,25.48
2023-01-08T08:29:30.365Z,24.77
2023-01-08T08:30:35.148Z,24.75
2023-01-08T08:31:37.049Z,25.65
2023-01-08T08:32:39.025Z,25.20
2023-01-08T08:33:40.978Z,25.30
2023-01-08T08:34:42.877Z,27.63
2023-01-08T08:35:50.143Z,30.03
2023-01-08T08:36:52.092Z,28.42
2023-01-08T08:37:55.085Z,30.30
2023-01-08T08:38:56.975Z,32.05
2023-01-08T08:39:59.009Z,27.17
2023-01-08T08:41:00.793Z,26.00
2023-01-08T08:42:04.884Z,33.80
2023-01-08T08:43:06.557Z,29.33
2023-01-08T08:44:09.154Z,27.27
2023-01-08T08:45:11.178Z,38.95
2023-01-08T08:46:12.942Z,42.13
2023-01-08T08:47:14.853Z,36.05
2023-01-08T08:48:16.621Z,33.70
2023-01-08T08:49:18.352Z,39.35
2023-01-08T08:50:20.696Z,36.20
2023-01-08T08:51:22.523Z,37.03
2023-01-08T08:52:24.330Z,32.92
2023-01-08T08:53:27.670Z,34.28
2023-01-08T08:54:29.551Z,34.80
2023-01-08T08:55:31.954Z,27.33
2023-01-08T08:56:33.738Z,31.33
2023-01-08T08:57:35.631Z,35.47
2023-01-08T08:58:38.034Z,37.65
2023-01-08T08:59:40.020Z,31.13
2023-01-08T09:00:43.484Z,34.22
2023-01-08T09:01:45.560Z,38.47
2023-01-08T09:02:50.361Z,43.33
2023-01-08T09:03:52.153Z,37.80
2023-01-08T09:04:53.835Z,35.50
2023-01-08T09:05:55.541Z,36.53
2023-01-08T09:06:57.343Z,36.67
2023-01-08T09:07:59.087Z,37.42
2023-01-08T09:09:00.799Z,37.90
2023-01-08T09:10:02.617Z,35.88
2023-01-08T09:11:04.449Z,35.70
2023-01-08T09:12:06.556Z,41.08
2023-01-08T09:13:08.848Z,38.53
2023-01-08T09:14:10.723Z,39.38
2023-01-08T09:15:12.401Z,39.42
2023-01-08T09:16:14.167Z,42.35
2023-01-08T09:17:16.361Z,46.87
2023-01-08T09:18:18.055Z,47.63
2023-01-08T09:19:19.776Z,46.95
2023-01-08T09:20:21.999Z,43.47
2023-01-08T09:21:23.805Z,43.15
2023-01-08T09:22:25.587Z,42.97
2023-01-08T09:23:27.349Z,42.30
2023-01-08T09:24:29.398Z,42.67
2023-01-08T09:25:31.539Z,41.47
2023-01-08T09:26:33.392Z,38.45
2023-01-08T09:27:35.181Z,41.33
2023-01-08T09:28:37.156Z,39.05
2023-01-08T09:29:38.864Z,40.25
2023-01-08T09:30:40.583Z,37.30
2023-01-08T09:31:42.386Z,45.13
2023-01-08T09:32:44.304Z,36.40
2023-01-08T09:33:48.707Z,36.03
2023-01-08T09:34:50.583Z,42.72
2023-01-08T09:35:52.277Z,33.63
2023-01-08T09:36:53.980Z,32.13
2023-01-08T09:37:56.538Z,34.80
2023-01-08T09:38:58.235Z,30.80
2023-01-08T09:40:02.466Z,30.98
2023-01-08T09:41:10.474Z,29.75
2023-01-08T09:42:14.528Z,29.95
2023-01-08T09:43:20.050Z,29.42
2023-01-08T09:44:28.086Z,28.88
2023-01-08T09:45:36.003Z,27.77
2023-01-08T09:46:37.944Z,28.45
2023-01-08T09:47:43.081Z,31.77
2023-01-08T09:48:45.030Z,29.20
2023-01-08T09:49:49.202Z,28.70
2023-01-08T09:50:51.427Z,26.25
2023-01-08T09:51:53.106Z,25.88
2023-01-08T09:52:55.130Z,27.20
2023-01-08T09:53:57.846Z,27.30
2023-01-08T09:55:02.690Z,22.33
2023-01-08T09:56:17.952Z,22.50
2023-01-08T09:57:21.556Z,22.70
2023-01-08T09:58:51.154Z,22.45
2023-01-08T09:59:52.956Z,22.63
2023-01-08T10:00:55.237Z,24.60
2023-01-08T10:01:57.276Z,25.58
2023-01-08T10:02:59.537Z,25.33
2023-01-08T10:04:05.826Z,24.27
2023-01-08T10:05:13.597Z,24.20
2023-01-08T10:06:16.869Z,26.40
2023-01-08T10:07:24.323Z,23.75
2023-01-08T10:08:25.995Z,24.02
2023-01-08T10:09:30.901Z,22.95
2023-01-08T10:10:32.964Z,23.80
2023-01-08T10:11:47.715Z,22.88
2023-01-08T10:12:50.675Z,23.17
2023-01-08T10:13:54.258Z,23.38
2023-01-08T10:15:09.217Z,23.25
2023-01-08T10:16:33.294Z,21.95
2023-01-08T10:17:58.145Z,21.85
2023-01-08T10:19:00.223Z,21.35
2023-01-08T10:20:01.965Z,21.70
2023-01-08T10:21:04.433Z,23.38
2023-01-08T10:22:18.073Z,23.67
2023-01-08T10:23:21.426Z,22.70
2023-01-08T10:24:36.940Z,21.23
2023-01-08T10:25:56.782Z,17.80
2023-01-08T10:27:07.291Z,18.45
2023-01-08T10:28:20.904Z,18.40
2023-01-08T10:29:22.563Z,18.63
2023-01-08T10:30:37.038Z,18.20
2023-01-08T10:31:54.858Z,17.80
2023-01-08T10:33:02.579Z,19.83
2023-01-08T10:34:11.034Z,20.50
2023-01-08T10:35:19.511Z,20.70
2023-01-08T10:36:24.692Z,18.80
2023-01-08T10:37:41.727Z,18.75
2023-01-08T10:38:49.520Z,16.67
2023-01-08T10:39:52.747Z,15.95
2023-01-08T10:40:55.709Z,17.05
2023-01-08T10:42:05.364Z,16.17
2023-01-08T10:43:21.168Z,16.17
2023-01-08T10:44:24.770Z,15.80
2023-01-08T10:45:28.501Z,15.97
2023-01-08T10:46:58.223Z,14.52
2023-01-08T10:48:04.935Z,13.02
2023-01-08T10:49:16.137Z,12.63
2023-01-08T10:50:25.836Z,11.70
2023-01-08T10:51:30.192Z,11.27
2023-01-08T10:52:34.557Z,11.48
2023-01-08T10:53:36.207Z,10.43
2023-01-08T10:54:40.023Z,8.73
2023-01-08T10:55:41.840Z,8.57
2023-01-08T10:56:45.036Z,9.37
2023-01-08T10:58:01.070Z,11.98
2023-01-08T10:59:03.411Z,11.55
2023-01-08T11:00:05.901Z,10.52
2023-01-08T11:01:24.993Z,11.27
2023-01-08T11:02:38.579Z,10.32
2023-01-08T11:03:41.378Z,19.35
2023-01-08T11:04:44.597Z,12.88
2023-01-08T11:05:46.525Z,19.70
2023-01-08T11:06:48.592Z,7.65
2023-01-08T11:07:57.594Z,11.13
2023-01-08T11:09:00.750Z,8.07
2023-01-08T11:10:04.251Z,7.28
2023-01-08T11:11:09.987Z,8.38
2023-01-08T11:12:31.885Z,8.20
2023-01-08T11:13:33.574Z,9.40
2023-01-08T11:14:35.928Z,8.07
2023-01-08T11:15:40.705Z,8.95
2023-01-08T11:16:43.501Z,9.35
2023-01-08T11:17:45.951Z,9.40
2023-01-08T11:18:49.866Z,9.80
2023-01-08T11:19:51.781Z,9.88
2023-01-08T11:20:54.614Z,10.43
2023-01-08T11:22:18.575Z,10.95
2023-01-08T11:23:26.176Z,9.57
2023-01-08T11:24:36.970Z,8.50
2023-01-08T11:25:40.740Z,7.32
2023-01-08T11:26:46.808Z,10.23
2023-01-08T11:27:50.430Z,9.05
2023-01-08T11:29:07.435Z,9.15
2023-01-08T11:30:21.950Z,9.47
2023-01-08T11:31:36.847Z,8.25
2023-01-08T11:32:47.551Z,11.95
2023-01-08T11:33:56.229Z,8.90
2023-01-08T11:35:04.389Z,10.07
2023-01-08T11:36:43.486Z,8.32
2023-01-08T11:38:00.876Z,9.07
2023-01-08T11:39:02.903Z,10.23
2023-01-08T11:40:17.919Z,10.70
2023-01-08T11:41:40.056Z,9.48
2023-01-08T11:43:08.030Z,11.80
2023-01-08T11:44:30.757Z,8.93
2023-01-08T11:45:51.686Z,9.15
2023-01-08T11:47:02.688Z,8.30
2023-01-08T11:48:29.167Z,9.52
2023-01-08T11:49:51.827Z,9.25
2023-01-08T11:50:53.595Z,13.80
2023-01-08T11:52:12.668Z,17.83
2023-01-08T11:53:23.008Z,10.75
2023-01-08T11:54:34.062Z,10.38
2023-01-08T11:55:55.799Z,13.07
2023-01-08T11:57:13.051Z,13.30
2023-01-08T11:58:33.748Z,8.98
2023-01-08T11:59:41.615Z,17.17
2023-01-08T12:00:46.399Z,15.77
2023-01-08T12:01:55.205Z,14.65
2023-01-08T12:03:16.242Z,13.77
2023-01-08T12:04:32.024Z,27.23
2023-01-08T12:06:24.347Z,19.58
2023-01-08T12:07:32.462Z,10.55
2023-01-08T12:08:53.826Z,11.97
2023-01-08T12:10:13.974Z,9.70
2023-01-08T12:11:38.971Z,8.68
2023-01-08T12:13:13.403Z,8.73
2023-01-08T12:14:21.196Z,12.57
2023-01-08T12:15:48.875Z,9.88
2023-01-08T12:17:19.688Z,9.65
2023-01-08T12:18:42.351Z,7.32
2023-01-08T12:20:20.094Z,15.00
2023-01-08T12:21:31.139Z,9.43
2023-01-08T12:22:46.336Z,15.20
2023-01-08T12:24:12.616Z,14.30
2023-01-08T12:25:55.464Z,12.43
2023-01-08T12:27:15.208Z,12.93
2023-01-08T12:28:30.684Z,13.18
2023-01-08T12:29:47.630Z,11.25
2023-01-08T12:31:08.166Z,9.85
2023-01-08T12:32:24.461Z,7.03
2023-01-08T12:33:53.539Z,6.63
2023-01-08T12:35:08.003Z,8.45
2023-01-08T12:36:15.068Z,8.50
2023-01-08T12:37:25.546Z,8.13
2023-01-08T12:38:34.117Z,8.35
2023-01-08T12:39:47.659Z,8.75
2023-01-08T12:40:55.272Z,8.27
2023-01-08T12:42:06.199Z,8.05
2023-01-08T12:43:19.264Z,7.95
2023-01-08T12:44:26.415Z,8.23
2023-01-08T12:45:35.632Z,8.98
2023-01-08T12:46:42.328Z,8.23
2023-01-08T12:47:48.896Z,9.20
2023-01-08T12:48:53.127Z,8.35
2023-01-08T12:50:21.376Z,10.07
2023-01-08T12:51:34.558Z,9.52
2023-01-08T12:52:48.296Z,8.20
2023-01-08T12:54:22.568Z,8.60
2023-01-08T12:55:42.949Z,8.68
2023-01-08T12:57:17.260Z,8.43
2023-01-08T12:58:54.268Z,8.45
2023-01-08T13:00:20.636Z,9.35
2023-01-08T13:01:22.327Z,8.57
2023-01-08T13:02:42.327Z,8.93
2023-01-08T13:03:45.457Z,8.23
2023-01-08T13:04:47.962Z,8.70
2023-01-08T13:05:50.144Z,10.88
2023-01-08T13:07:05.014Z,8.60
2023-01-08T13:08:39.298Z,9.50
2023-01-08T13:09:41.016Z,9.07
2023-01-08T13:10:51.817Z,7.20
2023-01-08T13:11:57.274Z,7.93
2023-01-08T13:13:00.285Z,7.33
2023-01-08T13:14:01.907Z,10.43
2023-01-08T13:15:05.135Z,9.65
2023-01-08T13:16:09.396Z,8.32
2023-01-08T13:17:22.483Z,7.53
2023-01-08T13:18:24.291Z,8.00
2023-01-08T13:19:28.993Z,8.38
2023-01-08T13:20:32.523Z,8.07
2023-01-08T13:21:42.780Z,8.68
2023-01-08T13:22:51.109Z,7.88
2023-01-08T13:24:03.421Z,9.27
2023-01-08T13:25:17.218Z,8.18
2023-01-08T13:26:29.880Z,10.15
2023-01-08T13:27:31.645Z,8.90
2023-01-08T13:28:46.174Z,8.35
2023-01-08T13:29:50.502Z,9.18
2023-01-08T13:30:52.838Z,9.65
2023-01-08T13:31:54.648Z,9.35
2023-01-08T13:32:56.486Z,8.73
2023-01-08T13:33:58.413Z,8.00
2023-01-08T13:35:15.006Z,7.67
2023-01-08T13:36:25.530Z,7.38
2023-01-08T13:37:28.124Z,9.48
2023-01-08T13:38:30.150Z,11.13
2023-01-08T13:39:37.568Z,11.90
2023-01-08T13:40:46.032Z,12.20
2023-01-08T13:42:04.496Z,14.90
2023-01-08T13:43:16.308Z,15.52
2023-01-08T13:44:25.080Z,10.98
2023-01-08T13:45:27.379Z,13.18
2023-01-08T13:46:29.284Z,14.23
2023-01-08T13:47:43.275Z,12.48
2023-01-08T13:48:57.919Z,13.05
2023-01-08T13:50:02.682Z,12.98
2023-01-08T13:51:05.071Z,12.10
2023-01-08T13:52:07.165Z,10.82
2023-01-08T13:53:14.038Z,11.60
2023-01-08T13:54:34.283Z,8.77
2023-01-08T13:55:39.689Z,10.05
2023-01-08T13:56:43.803Z,9.80
2023-01-08T13:57:53.845Z,9.00
2023-01-08T13:58:55.791Z,7.90
2023-01-08T13:59:59.323Z,8.85
2023-01-08T14:01:02.207Z,8.52
2023-01-08T14:02:05.099Z,20.65
2023-01-08T14:03:31.676Z,12.07
2023-01-08T14:04:34.254Z,9.90
2023-01-08T14:05:37.024Z,12.07
2023-01-08T14:06:38.680Z,11.07
2023-01-08T14:07:42.914Z,10.68
2023-01-08T14:09:04.857Z,10.83
2023-01-08T14:10:12.157Z,9.50
2023-01-08T14:11:14.050Z,11.20
2023-01-08T14:12:24.253Z,10.77
2023-01-08T14:13:32.208Z,9.52